Date,TemperatureHighF,TemperatureAvgF,TemperatureLowF,DewpointHighF,DewpointAvgF,DewpointLowF,HumidityHigh,HumidityAvg,HumidityLow,PressureMaxIn,PressureMinIn,WindSpeedMaxMPH,WindSpeedAvgMPH,GustSpeedMaxMPH,PrecipitationSumIn
2013-1-1,81,68,58,64,60,56,96,80,52,30.18,30.02,9,1,16,0.00
2013-1-2,78,67,60,70,64,59,98,90,71,30.07,29.97,8,1,14,0.00
2013-1-3,82,70,60,71,65,60,98,87,54,30.11,30.00,8,1,15,0.01
2013-1-4,73,68,63,69,66,62,97,93,86,30.23,30.09,8,3,11,0.18
2013-1-5,81,68,62,68,64,60,97,86,64,30.24,30.13,11,3,13,0.00
2013-1-6,83,71,64,72,68,64,98,89,68,30.17,30.03,8,2,11,0.00
2013-1-7,76,69,66,69,67,64,96,91,76,30.15,30.06,9,3,14,0.24
2013-1-8,87,73,64,73,68,63,98,85,55,30.18,30.07,8,2,11,0.00
2013-1-9,88,76,69,72,69,66,97,80,49,30.24,30.13,5,1,11,0.00
2013-1-10,87,74,66,70,66,62,96,76,48,30.25,30.15,5,1,14,0.00
2013-1-11,87,72,63,70,65,62,97,79,47,30.24,30.10,5,1,10,0.00
2013-1-12,86,73,66,71,67,64,95,81,54,30.16,30.04,4,1,9,0.00
2013-1-13,86,72,64,69,66,62,96,82,54,30.11,30.03,6,1,10,0.00
2013-1-14,85,70,62,67,63,60,95,80,51,30.16,30.08,8,1,12,0.00
2013-1-15,84,71,61,69,64,60,97,80,53,30.12,30.03,9,1,10,0.00
2013-1-16,82,71,62,69,64,60,97,81,51,30.09,29.98,7,1,12,0.00
2013-1-17,79,67,60,70,62,51,97,85,69,30.11,29.98,18,5,22,0.00
2013-1-18,67,58,45,57,50,38,92,73,61,30.28,30.11,12,5,16,0.00
2013-1-19,75,66,59,65,62,57,95,87,68,30.21,30.08,9,3,15,0.00
2013-1-20,77,69,64,68,64,63,96,86,64,30.14,30.00,5,2,9,0.00
2013-1-21,74,67,62,67,63,60,95,89,78,30.07,29.98,11,3,16,0.00
2013-1-22,69,62,57,59,52,43,90,71,51,30.23,30.02,11,4,15,0.00
2013-1-23,73,61,54,52,45,39,77,58,32,30.31,30.21,10,4,14,0.00
2013-1-24,73,61,51,54,47,39,91,65,29,30.30,30.20,8,2,11,0.00
2013-1-25,78,62,50,56,52,48,95,73,43,30.28,30.16,6,1,8,0.00
2013-1-26,77,63,53,55,51,47,91,69,36,30.25,30.14,8,2,10,0.00
2013-1-27,81,67,55,61,56,52,93,71,42,30.26,30.17,10,2,12,0.00
2013-1-28,86,72,63,65,62,59,89,72,48,30.28,30.17,5,1,12,0.00
2013-1-29,85,72,62,69,65,61,96,81,51,30.21,30.07,6,1,11,0.00
2013-1-30,83,72,64,68,66,62,96,81,56,30.08,29.94,12,3,19,0.00
2013-1-31,73,63,50,69,54,36,95,75,44,30.20,29.91,15,4,19,0.06
2013-2-1,69,56,46,45,38,32,77,54,33,30.30,30.20,14,4,18,0.00
2013-2-2,78,60,48,55,46,38,90,61,37,30.26,30.10,9,2,13,0.00
2013-2-3,71,60,50,56,45,32,90,62,24,30.20,30.06,8,3,15,0.00
2013-2-4,73,59,46,53,45,35,96,67,26,30.14,30.01,7,1,9,0.00
2013-2-5,78,64,49,61,53,43,90,70,45,30.07,29.98,7,1,10,0.00
2013-2-6,83,69,57,65,60,54,92,76,50,30.10,30.00,7,1,11,0.00
2013-2-7,82,71,61,66,64,60,96,79,55,30.05,29.91,10,2,17,0.00
2013-2-8,80,72,62,69,63,54,95,77,42,30.05,29.88,12,5,16,0.00
2013-2-9,82,67,57,64,59,55,97,78,48,30.15,30.03,10,3,16,0.00
2013-2-10,82,68,61,64,61,58,90,79,53,30.20,30.11,4,1,10,0.00
2013-2-11,83,69,61,67,63,59,95,82,58,30.18,30.06,9,2,12,0.00
2013-2-12,82,78,69,71,70,67,93,75,67,30.08,29.95,14,5,17,0.00
2013-2-13,82,74,68,74,70,67,97,88,75,29.98,29.93,15,4,17,0.00
2013-2-15,64,63,62,62,61,61,95,94,90,29.96,29.93,0,0,0,0.01
2013-2-16,67,61,56,62,53,43,95,75,58,30.08,29.90,18,5,28,0.01
2013-2-17,58,50,43,44,30,22,64,47,29,30.31,30.09,15,5,22,0.00
2013-2-18,74,56,41,51,40,26,84,58,40,30.32,30.19,9,2,14,0.00
2013-2-19,78,63,53,65,57,50,95,84,59,30.19,30.07,6,1,10,0.00
2013-2-20,84,69,57,65,60,56,98,76,39,30.09,29.97,7,1,10,0.00
2013-2-21,83,71,61,69,64,60,97,82,56,30.07,29.98,8,2,12,0.00
2013-2-22,85,72,63,72,67,62,97,84,58,30.07,29.97,9,2,15,0.00
2013-2-23,84,74,68,73,70,67,97,87,65,30.01,29.90,15,3,20,0.00
2013-2-24,83,74,68,73,70,67,97,88,67,29.98,29.88,9,2,14,0.01
2013-2-25,84,74,66,73,69,65,98,85,65,29.91,29.78,11,2,16,0.01
2013-2-26,84,75,67,74,71,65,95,86,71,29.88,29.74,17,4,27,0.00
2013-2-27,76,68,64,65,63,58,97,85,64,29.97,29.85,6,2,11,0.01
2013-2-28,71,64,60,60,56,54,88,77,55,30.01,29.90,11,3,16,0.00
2013-3-1,64,61,57,59,51,42,88,70,57,30.00,29.91,9,3,13,0.00
2013-3-2,59,56,52,47,43,41,77,64,53,30.05,29.97,12,4,19,0.00
2013-3-3,58,51,43,48,43,35,92,75,58,30.15,29.97,18,4,22,0.00
2013-3-4,67,52,39,48,41,35,93,69,35,30.22,30.10,9,2,13,0.00
2013-3-5,73,59,44,59,52,42,95,80,57,30.16,30.07,11,2,17,0.00
2013-3-6,69,62,53,64,52,42,95,72,44,30.12,29.99,16,5,25,0.00
2013-3-7,67,55,46,49,41,35,81,62,36,30.21,30.09,11,4,16,0.00
2013-3-8,76,59,46,53,47,40,91,67,29,30.20,30.09,7,2,13,0.00
2013-3-9,77,64,51,54,50,43,91,64,30,30.19,30.09,8,2,14,0.00
2013-3-10,83,68,56,61,56,52,89,68,38,30.14,30.01,7,2,14,0.00
2013-3-11,80,68,59,63,60,56,92,75,52,30.08,29.90,14,2,18,0.00
2013-3-12,76,66,59,69,63,55,93,88,77,30.02,29.88,10,4,22,0.00
2013-3-13,76,63,55,54,48,39,89,62,27,30.15,30.02,14,4,17,0.00
2013-3-14,71,59,51,51,42,28,83,57,20,30.23,30.11,12,4,20,0.00
2013-3-15,77,59,46,51,41,31,85,58,24,30.27,30.12,10,3,16,0.00
2013-3-16,76,62,49,55,49,38,95,69,28,30.18,30.07,8,1,15,0.00
2013-3-17,80,66,54,62,57,52,94,76,47,30.12,29.99,10,2,16,0.00
2013-3-18,81,68,61,70,64,58,95,86,64,30.03,29.92,14,2,14,0.01
2013-3-19,82,70,65,70,66,64,96,86,66,30.00,29.83,8,2,15,0.00
2013-3-20,79,67,61,67,63,60,97,87,61,29.99,29.80,16,2,20,0.01
2013-3-21,74,64,56,63,51,36,95,67,25,29.96,29.84,10,3,17,0.00
2013-3-22,81,66,52,70,57,41,92,72,57,29.97,29.86,9,2,14,0.00
2013-3-23,85,76,70,73,70,67,97,82,60,29.95,29.80,13,3,20,0.00
2013-3-24,81,75,69,74,71,67,96,88,78,29.85,29.68,21,6,26,0.00
2013-3-25,75,69,58,73,55,35,94,64,27,30.03,29.74,13,5,16,0.00
2013-3-26,62,56,50,47,41,35,76,58,43,30.23,30.02,17,6,23,0.00
2013-3-27,64,52,44,46,38,32,76,60,36,30.29,30.18,13,4,15,0.00
2013-3-28,73,57,43,50,40,28,87,59,19,30.29,30.15,13,3,13,0.00
2013-3-29,78,62,49,53,46,39,90,60,27,30.30,30.16,9,2,15,0.00
2013-3-30,80,65,53,57,53,48,93,68,40,30.24,30.11,8,1,14,0.00
2013-3-31,81,68,56,63,59,54,92,75,46,30.17,30.01,10,2,18,0.00
2013-4-1,82,72,63,70,66,61,97,83,58,30.04,29.96,14,3,17,0.00
2013-4-2,82,72,66,68,66,63,97,80,58,30.08,29.98,10,2,14,0.00
2013-4-3,90,75,65,71,67,63,93,77,44,30.05,29.92,11,2,17,0.00
2013-4-4,82,71,65,74,67,63,96,89,70,30.02,29.86,17,2,22,0.01
2013-4-5,72,68,63,68,63,57,96,83,61,30.01,29.80,14,5,18,0.00
2013-4-6,82,66,59,63,59,55,92,78,49,30.07,29.95,13,4,13,0.00
2013-4-7,88,73,60,65,62,58,95,71,37,30.11,30.01,10,2,14,0.00
2013-4-8,88,73,62,65,62,59,91,71,40,30.10,30.00,5,1,11,0.00
2013-4-9,90,74,63,69,64,61,94,73,38,30.12,30.03,9,1,13,0.00
2013-4-10,93,76,65,73,68,63,95,80,49,30.08,29.94,14,2,15,0.00
2013-4-11,89,78,70,74,71,69,96,81,55,29.98,29.83,8,2,17,0.00
2013-4-12,87,78,73,75,73,72,96,84,63,29.92,29.86,9,3,16,0.00
2013-4-13,88,79,72,74,70,68,92,75,58,29.96,29.83,9,2,15,0.01
2013-4-14,88,78,69,76,72,67,96,82,58,29.95,29.82,13,2,18,0.00
2013-4-15,92,78,66,76,70,63,92,76,52,30.05,29.91,9,2,17,0.25
2013-4-16,93,79,69,74,71,68,96,77,46,30.11,29.99,12,2,18,0.00
2013-4-17,90,78,69,71,68,65,94,74,47,30.10,29.98,11,3,17,0.00
2013-4-18,92,78,69,76,70,65,93,77,50,30.03,29.92,8,2,14,0.23
2013-4-19,88,78,70,77,72,68,96,83,63,30.00,29.92,13,2,18,0.12
2013-4-20,85,77,71,75,71,68,97,84,63,30.10,29.94,13,2,14,0.09
2013-4-21,90,74,64,73,68,63,95,82,54,30.09,29.95,10,3,15,0.25
2013-4-22,86,73,67,73,69,66,96,86,63,30.05,29.92,10,2,11,0.21
2013-4-23,86,74,66,70,66,63,95,76,49,30.07,29.96,11,5,16,0.00
2013-4-24,89,74,62,69,65,61,95,74,41,30.11,30.02,10,3,12,0.00
2013-4-25,88,76,65,70,64,58,94,69,37,30.18,30.06,8,2,12,0.00
2013-4-26,87,76,64,66,63,61,92,68,46,30.21,30.11,12,2,18,0.00
2013-4-27,88,76,66,67,64,60,93,68,46,30.19,30.04,10,2,18,0.00
2013-4-28,91,76,66,71,65,62,87,70,43,30.09,29.94,7,1,12,0.00
2013-4-29,88,75,65,72,66,62,90,76,57,30.00,29.90,8,1,16,0.00
2013-4-30,88,76,68,75,70,67,96,82,61,29.96,29.89,9,2,14,0.00
2013-5-1,81,71,68,75,69,65,96,92,77,29.98,29.82,14,1,22,0.65
2013-5-2,75,69,68,70,68,66,97,94,83,29.94,29.79,8,1,9,0.45
2013-5-3,83,73,65,72,68,64,98,84,66,29.83,29.68,12,3,16,0.00
2013-5-4,79,74,68,70,68,65,93,82,69,29.80,29.68,19,7,25,0.00
2013-5-5,78,71,66,68,59,51,90,68,41,29.94,29.78,16,6,19,0.00
2013-5-6,77,69,60,66,62,58,95,78,61,30.00,29.91,9,3,16,0.00
2013-5-7,78,68,59,64,60,57,94,77,58,30.05,29.97,13,3,19,0.00
2013-5-8,81,71,61,64,60,52,97,72,39,30.12,30.03,11,2,12,0.00
2013-5-9,90,74,61,66,61,51,95,69,27,30.13,30.05,7,1,11,0.00
2013-5-10,90,77,65,74,69,63,95,78,54,30.11,29.98,12,2,15,0.00
2013-5-11,88,79,69,76,72,68,96,82,56,30.04,29.97,12,2,17,0.00
2013-5-12,86,79,73,76,73,70,97,84,68,30.03,29.91,13,3,18,0.00
2013-5-13,84,77,71,72,68,53,95,75,53,30.09,29.98,11,3,14,0.00
2013-5-14,86,74,64,60,57,53,80,57,35,30.16,30.07,8,3,22,0.00
2013-5-15,89,74,62,64,60,58,88,64,39,30.16,30.05,9,2,12,0.00
2013-5-16,91,76,63,67,62,58,91,64,35,30.09,29.97,6,1,11,0.00
2013-5-17,89,78,66,69,65,61,92,68,39,30.06,29.99,10,2,13,0.00
2013-5-18,89,79,68,72,69,67,96,73,51,30.08,29.98,10,2,16,0.00
2013-5-19,91,78,71,74,70,68,93,80,54,30.07,29.95,9,1,13,0.03
2013-5-20,90,77,70,75,70,66,96,81,50,30.04,29.94,8,2,14,0.00
2013-5-21,93,76,68,74,69,66,95,81,48,29.99,29.87,11,1,13,0.04
2013-5-22,87,77,68,75,70,67,96,80,60,29.93,29.86,13,2,16,0.00
2013-5-23,87,79,70,73,71,68,96,78,57,30.00,29.89,9,3,16,0.00
2013-5-24,92,81,73,75,71,65,94,74,41,30.05,29.95,11,3,18,0.00
2013-5-25,92,80,68,74,68,65,93,70,44,30.13,30.02,10,3,17,0.00
2013-5-26,88,77,66,67,65,58,91,68,36,30.16,30.06,10,3,15,0.00
2013-5-27,90,78,68,73,67,64,88,71,52,30.14,30.00,12,3,17,0.00
2013-5-28,89,78,72,76,72,70,92,81,58,30.09,29.99,7,2,15,0.05
2013-5-29,85,76,71,74,71,69,95,85,66,30.07,29.98,8,2,14,0.46
2013-5-30,90,78,71,76,72,69,93,82,60,30.03,29.94,11,3,18,0.03
2013-5-31,87,78,72,77,73,70,95,85,66,30.02,29.97,10,2,14,0.10
2013-6-1,92,79,73,77,73,71,96,84,59,30.01,29.92,9,2,13,0.00
2013-6-2,90,80,72,77,74,70,96,82,59,29.98,29.89,15,2,17,0.00
2013-6-3,85,78,74,76,74,72,95,85,70,29.99,29.89,11,2,12,0.01
2013-6-4,81,76,72,76,73,70,95,90,83,30.01,29.93,7,1,13,0.11
2013-6-5,79,77,75,76,75,73,96,93,89,29.99,29.84,5,1,10,0.22
2013-6-6,81,76,72,78,74,71,96,92,82,29.85,29.73,17,4,21,1.47
2013-6-7,84,78,75,77,74,71,96,87,75,29.96,29.80,7,2,14,0.02
2013-6-8,90,81,75,79,76,72,94,83,64,30.08,29.94,11,2,15,0.00
2013-6-9,96,83,75,78,75,73,96,79,50,30.08,29.98,7,1,12,0.00
2013-6-10,93,82,75,79,75,73,96,81,56,30.05,29.97,6,1,11,0.00
2013-6-11,93,80,70,78,74,68,96,83,57,30.07,29.95,9,1,18,1.47
2013-6-12,91,77,71,79,73,69,96,89,57,30.08,29.99,7,1,12,1.47
2013-6-13,89,77,70,79,73,69,98,88,64,30.03,29.91,7,1,14,0.07
2013-6-14,87,80,74,77,74,72,97,82,62,29.95,29.86,13,3,17,0.00
2013-6-15,90,82,75,78,75,73,96,81,67,30.03,29.92,9,2,13,0.02
2013-6-16,96,83,76,79,76,73,96,80,54,30.08,29.98,6,1,12,0.05
2013-6-17,96,84,75,79,75,72,96,78,49,30.06,29.96,7,1,14,0.00
2013-6-18,94,84,75,79,76,73,96,78,57,30.05,29.94,7,2,12,0.07
2013-6-19,91,81,74,78,74,69,96,81,62,30.03,29.95,7,1,17,0.02
2013-6-20,94,78,73,79,74,71,95,85,59,30.07,30.00,6,1,14,0.27
2013-6-21,92,79,72,78,73,69,95,82,56,30.08,30.01,13,1,17,0.01
2013-6-22,96,82,73,76,73,68,96,78,44,30.08,30.00,7,1,13,0.08
2013-6-23,95,80,74,77,74,71,95,81,51,30.10,30.03,5,1,13,0.00
2013-6-24,95,82,74,77,74,71,95,79,48,30.14,30.03,8,1,12,0.00
2013-6-25,94,82,74,77,73,68,94,76,46,30.11,29.98,10,1,16,0.00
2013-6-26,91,77,71,79,74,69,95,88,63,30.07,29.98,8,1,16,0.98
2013-6-27,92,78,72,81,74,70,97,87,59,30.03,29.93,12,1,19,0.27
2013-6-28,90,81,74,78,74,72,97,81,60,29.97,29.85,11,2,14,0.00
2013-6-29,90,82,76,78,75,74,95,79,61,29.89,29.81,10,2,14,0.00
2013-6-30,89,80,74,78,76,72,96,85,67,29.90,29.82,13,3,24,1.96
2013-7-1,74,74,74,73,72,72,96,96,95,29.92,29.88,7,1,14,0.59
2013-7-2,87,77,73,80,74,71,97,90,78,30.07,30.00,7,1,14,1.33
2013-7-3,93,78,73,79,74,71,97,89,59,30.10,30.02,6,1,12,0.65
2013-7-4,94,79,72,79,74,71,96,86,58,30.12,30.03,8,1,14,0.15
2013-7-5,92,79,74,79,74,71,95,86,61,30.10,30.01,9,1,17,0.22
2013-7-6,96,83,76,79,75,73,95,80,52,30.08,29.98,5,1,13,0.00
2013-7-7,96,83,76,78,75,73,94,78,51,30.09,29.98,5,1,14,0.01
2013-7-8,96,82,75,76,74,72,94,79,47,30.12,30.05,7,1,14,0.09
2013-7-9,87,79,74,78,74,72,95,84,65,30.12,30.03,9,2,13,0.06
2013-7-10,88,78,74,76,74,72,96,86,63,30.07,29.96,7,1,12,0.19
2013-7-11,89,80,74,78,74,73,97,85,64,30.01,29.91,7,1,11,0.12
2013-7-12,88,80,75,77,74,72,96,84,63,29.95,29.87,7,1,11,0.00
2013-7-13,88,77,73,78,74,72,97,88,68,29.97,29.89,6,1,14,0.25
2013-7-14,81,76,73,76,73,71,96,91,78,30.06,29.94,6,1,11,0.16
2013-7-15,89,78,72,77,73,71,95,85,61,30.07,29.99,7,1,13,0.07
2013-7-16,89,78,74,75,72,70,94,83,62,30.10,30.02,8,2,14,0.08
2013-7-17,89,79,74,76,73,71,96,84,65,30.10,30.01,8,2,11,0.14
2013-7-18,83,74,71,77,72,70,97,93,80,30.09,30.03,7,1,13,0.73
2013-7-19,94,78,70,80,74,70,97,88,58,30.11,30.01,6,1,14,0.24
2013-7-20,93,79,74,81,75,71,97,86,62,30.09,30.00,7,1,12,0.00
2013-7-21,91,81,74,81,76,72,96,85,66,30.12,30.02,7,1,12,0.06
2013-7-22,92,83,76,79,76,73,96,82,62,30.12,30.05,8,1,11,0.00
2013-7-23,91,82,76,78,76,75,96,82,62,30.09,29.96,7,2,13,0.00
2013-7-24,87,82,76,76,74,70,94,79,59,30.00,29.91,12,3,18,0.00
2013-7-25,87,82,78,78,75,73,87,79,71,30.00,29.90,14,4,17,0.00
2013-7-26,88,83,73,79,76,70,95,80,67,30.03,29.94,11,3,17,0.08
2013-7-27,90,83,76,79,76,74,96,82,64,29.98,29.90,10,2,15,0.46
2013-7-28,93,83,76,78,75,73,96,77,56,30.04,29.93,8,1,11,0.00
2013-7-29,96,81,75,79,74,72,94,82,50,30.12,30.00,7,1,14,0.02
2013-7-30,93,81,75,80,76,73,96,85,58,30.14,30.05,9,1,11,0.13
2013-7-31,94,82,76,79,76,73,95,82,58,30.10,29.98,9,1,17,0.01
2013-8-1,95,81,75,78,74,69,96,82,51,30.03,29.91,6,1,17,0.04
2013-8-2,90,80,74,78,75,71,97,85,56,30.03,29.91,17,1,28,0.67
2013-8-3,92,80,74,81,76,72,97,90,67,30.09,30.00,7,1,11,0.42
2013-8-4,90,82,76,79,77,75,97,85,68,30.08,29.99,8,2,14,0.00
2013-8-5,90,83,76,79,77,75,95,84,64,30.03,29.92,13,2,13,0.27
2013-8-6,92,81,77,80,77,74,97,87,62,29.96,29.88,9,1,10,0.57
2013-8-7,94,81,76,81,76,75,96,87,60,29.94,29.88,8,1,13,0.12
2013-8-8,98,82,76,79,76,74,97,85,51,29.99,29.90,5,1,11,0.24
2013-8-9,94,79,73,78,74,71,97,88,56,30.04,29.93,13,1,21,0.20
2013-8-10,97,84,74,80,75,73,95,76,50,30.08,29.99,6,1,10,0.00
2013-8-11,98,87,76,78,76,74,94,72,49,30.11,30.01,4,1,9,0.00
2013-8-12,95,84,76,76,74,68,95,73,43,30.10,29.98,14,2,15,0.00
2013-8-20,84,81,79,76,76,75,89,84,77,30.03,29.96,3,1,7,0.25
2013-8-21,96,82,77,80,77,75,95,84,58,30.05,29.95,9,2,15,0.19
2013-8-22,98,82,75,80,76,73,97,85,51,30.03,29.92,9,1,15,1.01
2013-8-23,93,80,75,80,76,73,98,86,59,29.99,29.92,4,1,10,0.01
2013-8-24,95,81,74,80,75,71,96,84,53,30.12,29.95,9,1,16,1.32
2013-8-25,93,80,75,79,76,73,96,87,53,30.12,30.00,9,2,11,0.05
2013-8-26,91,78,73,78,75,70,96,89,59,30.09,29.96,7,2,14,0.93
2013-8-27,92,78,72,77,74,71,98,89,57,30.03,29.95,8,1,21,0.08
2013-8-28,93,78,74,77,74,71,96,87,52,30.02,29.95,8,1,15,0.27
2013-8-29,90,80,73,77,74,72,97,84,59,30.01,29.90,8,1,11,0.08
2013-8-30,93,80,74,78,75,70,97,86,56,29.98,29.88,15,1,19,0.63
2013-8-31,90,81,74,78,74,72,96,81,57,29.96,29.88,8,2,13,0.00
2013-9-1,92,80,75,79,74,73,95,83,59,29.98,29.91,9,1,14,0.00
2013-9-2,89,78,75,79,75,72,96,89,65,30.00,29.92,6,0,11,0.07
2013-9-3,88,80,73,78,75,72,97,85,68,30.01,29.91,7,1,12,0.01
2013-9-4,95,80,76,81,76,72,94,87,59,30.04,29.93,4,1,12,0.01
2013-9-5,98,83,76,80,76,74,97,81,47,30.06,29.96,7,1,13,0.00
2013-9-6,95,84,74,80,76,69,94,79,51,30.02,29.88,7,1,20,0.62
2013-9-11,91,83,76,78,76,74,94,80,65,30.02,29.95,12,2,15,0.00
2013-9-12,93,80,75,78,75,72,96,85,58,29.99,29.85,11,1,23,0.01
2013-9-13,88,80,73,77,74,72,97,82,61,29.89,29.79,7,1,10,0.00
2013-9-14,92,82,75,77,74,71,96,79,56,29.94,29.81,5,1,10,0.00
2013-9-15,95,79,75,79,75,71,96,86,56,30.04,29.91,8,1,19,0.02
2013-9-16,89,77,74,79,74,72,96,91,69,30.02,29.93,9,2,22,0.33
2013-9-17,87,76,73,78,74,72,98,93,69,30.00,29.90,7,2,18,1.86
2013-9-18,90,77,73,78,74,71,97,90,66,29.99,29.91,9,2,17,0.44
2013-9-19,89,79,72,78,74,72,97,87,64,30.00,29.92,10,2,13,0.01
2013-9-20,90,80,73,74,72,69,96,77,53,29.99,29.87,11,2,16,0.00
2013-9-21,90,80,72,76,72,70,95,80,57,29.91,29.75,6,1,11,0.00
2013-9-22,89,81,74,77,75,73,96,83,61,29.84,29.75,10,2,13,0.00
2013-9-23,83,78,75,79,76,74,97,95,83,29.94,29.82,10,1,15,1.39
2013-9-24,86,76,72,81,74,70,98,95,80,29.94,29.87,12,2,18,1.27
2013-9-25,80,76,73,77,74,71,98,94,85,29.91,29.79,10,1,13,0.20
2013-9-26,86,81,75,81,77,74,98,89,74,29.86,29.79,13,3,22,0.17
2013-9-27,86,79,73,74,72,67,95,80,57,29.92,29.82,10,2,14,0.00
2013-9-28,89,79,72,75,72,70,94,80,55,29.95,29.86,10,4,15,0.00
2013-9-29,90,80,72,74,71,68,94,77,55,29.95,29.84,9,2,12,0.00
2013-9-30,93,80,72,76,72,70,96,78,49,29.98,29.86,6,1,11,0.00
2013-10-1,93,81,73,76,73,68,96,78,47,30.01,29.91,11,2,12,0.00
2013-10-2,91,80,74,76,73,71,91,80,58,30.02,29.91,10,2,15,0.00
2013-10-3,93,79,74,78,74,72,96,87,57,30.02,29.92,8,1,11,0.54
2013-10-4,92,80,73,76,72,67,97,79,53,30.04,29.95,7,1,13,0.00
2013-10-5,94,81,73,73,71,67,93,74,44,30.02,29.90,6,1,9,0.00
2013-10-6,89,80,72,76,73,71,96,81,62,29.95,29.85,6,1,10,0.00
2013-10-7,87,80,75,78,75,72,95,86,74,29.87,29.78,15,3,22,0.00
2013-10-8,85,78,73,75,72,69,95,82,67,29.92,29.82,8,2,14,0.00
2013-10-9,84,77,73,74,72,70,94,84,69,29.99,29.89,9,2,11,0.00
2013-10-10,87,77,69,72,70,67,95,79,56,30.02,29.92,12,2,13,0.00
2013-10-11,88,77,68,71,67,62,96,74,44,30.01,29.91,8,1,11,0.00
2013-10-12,85,77,69,71,68,66,95,77,54,30.02,29.94,8,1,10,0.00
2013-10-13,86,78,70,72,67,64,93,71,50,30.04,29.94,8,2,11,0.00
2013-10-14,87,77,69,70,67,64,93,73,49,30.01,29.89,7,2,12,0.00
2013-10-15,86,77,69,71,68,65,94,75,50,29.96,29.85,11,2,11,0.00
2013-10-16,85,77,70,73,70,68,96,81,57,29.94,29.86,7,1,11,0.00
2013-10-17,88,78,70,73,71,69,96,80,58,29.95,29.86,5,1,12,0.00
2013-10-18,93,80,72,75,72,69,97,78,49,29.96,29.86,5,0,8,0.00
2013-10-21,86,81,76,77,75,74,92,82,73,29.94,29.88,5,1,10,0.00
2013-10-22,76,75,74,74,73,72,97,95,93,29.95,29.88,0,0,2,0.00
2013-10-23,80,76,70,68,63,57,75,66,57,29.96,29.85,8,2,13,0.03
2013-10-24,75,70,66,64,60,54,83,70,64,30.11,29.95,10,5,15,0.00
2013-10-25,80,70,63,65,62,59,87,75,57,30.18,30.09,10,4,17,0.00
2013-10-26,82,71,63,65,61,56,88,71,44,30.16,30.04,8,4,12,0.00
2013-10-27,74,71,68,63,61,59,82,72,60,30.08,30.03,3,1,5,0.00
2013-10-28,84,73,63,67,64,61,93,74,50,30.14,30.05,9,2,12,0.00
2013-10-29,87,75,66,69,66,63,90,75,53,30.18,30.06,12,4,17,0.00
2013-10-30,88,75,68,69,66,64,93,75,47,30.17,30.04,9,2,15,0.00
2013-10-31,91,77,67,72,69,65,94,78,46,30.09,29.95,7,1,10,0.00
2013-11-1,85,76,68,75,71,67,98,86,64,29.99,29.87,11,1,15,0.00
2013-11-2,82,74,70,76,70,62,98,87,72,29.94,29.81,8,2,15,0.03
2013-11-3,78,70,63,63,55,49,88,62,36,30.04,29.93,14,5,21,0.00
2013-11-4,81,70,60,65,60,53,82,70,52,30.08,30.01,15,6,23,0.00
2013-11-5,85,75,67,71,68,64,91,79,61,30.06,29.99,14,6,19,0.00
2013-11-6,89,77,70,72,69,67,90,76,56,30.05,29.95,11,3,16,0.00
2013-11-7,82,74,67,72,68,66,96,83,65,30.02,29.92,8,2,11,0.00
2013-11-8,82,74,67,71,67,65,95,81,66,30.05,29.95,14,5,18,0.00
2013-11-9,80,73,68,72,68,65,92,85,75,30.10,30.02,11,4,16,0.00
2013-11-10,86,76,70,73,69,67,93,79,58,30.12,30.01,9,4,14,0.00
2013-11-11,88,76,68,70,67,65,93,76,49,30.11,30.01,12,3,13,0.00
2013-11-12,83,75,68,70,67,66,95,78,57,30.08,29.95,8,2,12,0.00
2013-11-13,72,67,61,68,58,51,91,74,64,30.21,30.00,24,9,26,0.00
2013-11-14,79,67,58,61,57,51,83,70,50,30.22,30.11,12,4,17,0.00
2013-11-15,83,72,64,70,64,58,84,77,64,30.13,29.99,8,2,14,0.00
2013-11-16,80,73,69,73,68,65,95,84,71,30.07,29.99,8,2,13,0.09
2013-11-17,90,76,69,73,70,66,96,82,52,30.05,29.96,6,1,10,0.00
2013-11-18,84,75,68,72,70,67,97,85,63,30.01,29.90,4,1,8,0.00
2013-11-19,83,75,69,74,71,68,97,86,69,29.93,29.84,6,1,12,0.00
2013-11-20,86,75,67,72,69,66,97,84,59,30.05,29.92,6,2,9,0.00
2013-11-21,87,76,72,74,72,70,96,86,64,30.13,30.03,7,2,10,0.18
2013-11-22,84,75,70,72,69,67,96,83,60,30.13,30.04,10,3,16,0.01
2013-11-23,84,74,67,72,68,64,92,81,64,30.08,29.95,8,2,12,0.00
2013-11-24,77,70,64,69,65,61,95,86,70,30.14,29.98,22,5,23,0.00
2013-11-25,78,70,64,66,63,60,88,79,63,30.16,30.01,11,4,18,0.01
2013-11-26,85,76,69,74,71,66,96,86,65,30.00,29.79,13,2,21,0.35
2013-11-27,73,68,53,72,62,48,96,80,60,30.16,29.76,13,5,23,0.07
2013-11-28,68,55,41,55,48,38,87,76,58,30.28,30.14,10,4,15,0.00
2013-11-29,76,64,54,61,57,51,92,78,60,30.28,30.17,14,7,24,0.00
2013-11-30,76,65,57,66,61,54,96,86,69,30.24,30.12,11,5,24,0.00
2013-12-1,75,66,61,67,63,60,98,92,78,30.13,29.96,9,3,12,0.00
2013-12-2,74,66,61,66,63,60,97,90,69,29.95,29.82,7,1,9,0.00
2013-12-3,79,70,63,67,64,61,95,82,64,29.97,29.88,11,1,14,0.00
2013-12-4,84,72,63,71,66,62,97,82,58,30.06,29.96,7,1,12,0.01
2013-12-5,86,73,64,71,67,63,97,84,55,30.14,30.04,5,1,11,0.01
2013-12-6,87,74,67,74,69,66,98,86,57,30.16,30.05,7,1,10,0.00
2013-12-7,86,73,64,71,67,63,98,81,56,30.20,30.10,5,0,9,0.01
2013-12-8,88,74,67,72,68,65,96,81,51,30.18,30.06,5,1,11,0.01
2013-12-9,88,74,67,73,68,65,97,83,52,30.15,30.05,6,1,12,0.00
2013-12-10,84,74,66,73,68,64,97,84,57,30.14,30.06,8,1,12,0.00
2013-12-11,84,74,66,72,68,65,97,85,62,30.20,30.10,9,2,15,0.01
2013-12-12,71,67,58,68,62,42,97,84,46,30.23,30.13,12,4,16,0.00
2013-12-13,79,66,54,64,58,46,89,75,60,30.21,30.07,11,3,15,0.00
2013-12-14,87,74,64,72,68,62,97,84,58,30.07,29.94,9,2,15,0.00
2013-12-15,76,72,66,74,70,61,97,91,76,30.08,29.91,7,2,14,0.20
2013-12-16,69,63,56,60,56,52,89,78,61,30.17,30.06,9,3,12,0.00
2013-12-17,77,62,50,63,55,46,90,78,58,30.20,30.09,9,2,13,0.00
2013-12-18,73,62,54,56,49,42,92,65,34,30.27,30.16,11,2,14,0.00
2013-12-19,80,65,53,62,55,48,88,72,49,30.23,30.11,8,2,11,0.00
2013-12-20,86,72,61,71,65,58,94,80,58,30.15,30.05,5,1,11,0.00
2013-12-21,88,75,67,73,69,65,96,82,57,30.11,30.00,7,1,13,0.00
2013-12-22,86,74,68,73,70,67,97,86,63,30.13,30.04,8,1,15,0.01
2013-12-23,84,74,68,74,71,67,98,88,69,30.15,30.08,10,2,15,0.01
2013-12-24,71,67,56,70,62,44,97,85,54,30.19,30.10,18,4,18,0.01
2013-12-25,77,66,56,66,58,47,83,76,65,30.17,30.07,11,5,17,0.00
2013-12-26,82,70,63,70,64,58,90,81,63,30.16,30.03,8,2,13,0.00
2013-12-27,81,71,64,70,66,62,95,84,67,30.19,30.06,11,5,15,0.00
2013-12-28,83,73,66,73,68,64,95,86,68,30.16,29.99,6,2,14,0.00
2013-12-29,79,73,68,75,71,65,97,92,85,30.00,29.90,12,2,24,0.17
2013-12-30,73,67,63,65,62,61,92,85,72,30.15,29.99,8,3,10,0.00
2013-12-31,73,66,62,61,57,47,92,73,44,30.24,30.10,12,5,21,0.00
2014-1-1,82,70,62,73,66,57,97,87,70,30.18,30.02,8,2,11,0.17
2014-1-2,80,72,65,73,69,65,98,91,75,30.02,29.87,13,3,19,0.17